createdAt,value
2019-05-28T00:02:31.919Z,2.60
2019-05-28T00:05:20.863Z,3.17
2019-05-28T00:08:27.230Z,2.60
2019-05-28T00:11:16.170Z,2.90
2019-05-28T00:14:04.947Z,2.97
2019-05-28T00:17:08.772Z,3.07
2019-05-28T00:19:57.542Z,3.07
2019-05-28T00:22:46.401Z,3.70
2019-05-28T00:25:37.414Z,3.70
2019-05-28T00:31:38.201Z,3.50
2019-05-28T00:34:44.706Z,3.00
2019-05-28T00:37:33.131Z,3.53
2019-05-28T00:40:24.045Z,3.03
2019-05-28T00:43:31.057Z,3.43
2019-05-28T00:46:19.529Z,3.60
2019-05-28T00:49:29.752Z,3.67
2019-05-28T00:52:18.654Z,4.43
2019-05-28T00:55:11.107Z,3.90
2019-05-28T00:58:22.674Z,4.30
2019-05-28T01:01:13.295Z,4.07
2019-05-28T01:04:38.996Z,4.27
2019-05-28T01:07:29.559Z,3.90
2019-05-28T01:10:17.248Z,3.67
2019-05-28T01:13:07.198Z,3.70
2019-05-28T01:16:01.668Z,3.70
2019-05-28T01:21:45.178Z,3.53
2019-05-28T01:24:47.333Z,3.37
2019-05-28T01:27:38.751Z,3.23
2019-05-28T01:30:27.280Z,3.40
2019-05-28T01:33:33.514Z,3.30
2019-05-28T01:36:22.203Z,3.50
2019-05-28T01:39:14.369Z,3.23
2019-05-28T01:42:06.368Z,3.40
2019-05-28T01:44:59.697Z,3.20
2019-05-28T01:48:09.058Z,3.50
2019-05-28T01:51:26.042Z,3.53
2019-05-28T01:54:14.666Z,3.50
2019-05-28T01:57:25.754Z,3.60
2019-05-28T02:00:15.030Z,3.97
2019-05-28T02:03:15.037Z,3.33
2019-05-28T02:09:56.870Z,3.53
2019-05-28T02:12:16.872Z,4.00
2019-05-28T02:15:07.708Z,3.50
2019-05-28T02:17:56.955Z,3.83
2019-05-28T02:20:45.528Z,3.63
2019-05-28T02:24:06.540Z,3.70
2019-05-28T02:27:23.142Z,3.60
2019-05-28T02:30:12.368Z,3.50
2019-05-28T02:33:14.125Z,3.03
2019-05-28T02:36:06.610Z,3.20
2019-05-28T02:39:21.643Z,3.80
2019-05-28T02:42:09.805Z,3.60
2019-05-28T02:45:04.123Z,3.40
2019-05-28T02:47:58.165Z,3.57
2019-05-28T02:51:08.863Z,4.17
2019-05-28T02:54:01.646Z,4.40
2019-05-28T02:57:15.659Z,4.50
2019-05-28T03:00:04.952Z,5.30
2019-05-28T03:03:23.362Z,4.73
2019-05-28T03:06:15.611Z,5.40
2019-05-28T03:09:27.139Z,5.33
2019-05-28T03:12:20.050Z,5.73
2019-05-28T03:15:14.829Z,6.20
2019-05-28T03:18:21.860Z,7.03
2019-05-28T03:21:17.287Z,7.10
2019-05-28T03:24:07.347Z,7.00
2019-05-28T03:27:13.120Z,8.07
2019-05-28T03:30:01.319Z,9.03
2019-05-28T03:33:28.251Z,10.13
2019-05-28T03:36:17.906Z,9.90
2019-05-28T03:39:08.400Z,8.73
2019-05-28T03:41:56.191Z,10.17
2019-05-28T03:44:44.097Z,11.00
2019-05-28T03:47:32.721Z,12.00
2019-05-28T03:50:20.610Z,12.90
2019-05-28T03:53:08.273Z,12.13
2019-05-28T03:55:55.830Z,11.27
2019-05-28T03:58:43.788Z,12.20
2019-05-28T04:01:31.483Z,14.10
2019-05-28T04:04:19.244Z,13.53
2019-05-28T04:07:06.679Z,15.07
2019-05-28T04:09:54.515Z,17.37
2019-05-28T04:12:42.356Z,17.20
2019-05-28T04:15:30.097Z,17.60
2019-05-28T04:18:18.162Z,16.40
2019-05-28T04:21:05.963Z,18.13
2019-05-28T04:23:54.013Z,18.33
2019-05-28T04:26:41.447Z,19.87
2019-05-28T04:29:28.961Z,19.00
2019-05-28T04:32:16.904Z,19.67
2019-05-28T04:35:05.691Z,19.77
2019-05-28T04:37:53.440Z,21.33
2019-05-28T04:40:40.856Z,23.23
2019-05-28T04:43:28.847Z,22.60
2019-05-28T04:46:16.548Z,21.50
2019-05-28T04:49:04.485Z,21.27
2019-05-28T04:51:52.565Z,20.23
2019-05-28T04:54:40.008Z,21.90
2019-05-28T04:57:28.252Z,19.67
2019-05-28T05:00:16.667Z,20.37
2019-05-28T05:03:04.678Z,21.90
2019-05-28T05:05:53.043Z,21.53
2019-05-28T05:08:41.195Z,21.83
2019-05-28T05:11:29.104Z,22.07
2019-05-28T05:14:17.623Z,22.17
2019-05-28T05:17:05.453Z,22.77
2019-05-28T05:19:53.486Z,23.33
2019-05-28T05:22:41.733Z,23.17
2019-05-28T05:25:29.146Z,22.80
2019-05-28T05:28:17.408Z,23.73
2019-05-28T05:31:05.178Z,25.60
2019-05-28T05:33:52.723Z,24.57
2019-05-28T05:36:40.171Z,23.20
2019-05-28T05:39:28.213Z,21.43
2019-05-28T05:42:16.159Z,20.33
2019-05-28T05:45:07.352Z,20.97
2019-05-28T05:47:53.463Z,19.90
2019-05-28T05:50:45.075Z,19.10
2019-05-28T05:53:31.070Z,18.37
2019-05-28T05:56:19.026Z,16.07
2019-05-28T05:59:06.895Z,17.13
2019-05-28T06:01:54.567Z,15.97
2019-05-28T06:04:42.439Z,15.10
2019-05-28T06:07:30.155Z,14.07
2019-05-28T06:10:18.209Z,14.60
2019-05-28T06:13:05.756Z,15.03
2019-05-28T06:15:53.963Z,14.70
2019-05-28T06:18:41.844Z,14.37
2019-05-28T06:21:29.487Z,13.47
2019-05-28T06:24:16.992Z,13.37
2019-05-28T06:27:05.526Z,13.27
2019-05-28T06:29:53.070Z,13.37
2019-05-28T06:32:40.884Z,13.17
2019-05-28T06:35:28.956Z,12.50
2019-05-28T06:38:16.832Z,11.50
2019-05-28T06:41:04.716Z,13.67
2019-05-28T06:43:52.847Z,13.07
2019-05-28T06:46:41.476Z,11.10
2019-05-28T06:49:29.444Z,10.93
2019-05-28T06:52:17.115Z,11.47
2019-05-28T06:55:05.068Z,12.17
2019-05-28T06:57:52.737Z,12.00
2019-05-28T07:00:40.557Z,12.83
2019-05-28T07:03:28.695Z,9.77
2019-05-28T07:06:16.516Z,11.80
2019-05-28T07:09:06.106Z,11.10
2019-05-28T07:11:54.001Z,11.10
2019-05-28T07:14:42.009Z,11.73
2019-05-28T07:17:30.034Z,10.03
2019-05-28T07:20:18.172Z,10.63
2019-05-28T07:23:05.967Z,10.10
2019-05-28T07:25:53.838Z,9.80
2019-05-28T07:28:41.792Z,10.43
2019-05-28T07:31:29.810Z,10.43
2019-05-28T07:34:30.455Z,10.00
2019-05-28T07:37:07.587Z,10.27
2019-05-28T07:39:55.303Z,11.33
2019-05-28T07:42:43.020Z,9.90
2019-05-28T07:45:30.625Z,11.33
2019-05-28T07:48:18.865Z,11.07
2019-05-28T07:51:06.925Z,10.03
2019-05-28T07:53:54.760Z,8.53
2019-05-28T07:56:42.691Z,8.57
2019-05-28T07:59:31.132Z,8.60
2019-05-28T08:02:19.063Z,9.40
2019-05-28T08:05:07.291Z,9.70
2019-05-28T08:07:55.511Z,9.60
2019-05-28T08:10:43.233Z,8.60
2019-05-28T08:13:40.024Z,8.90
2019-05-28T08:16:20.167Z,9.73
2019-05-28T08:19:08.953Z,8.70
2019-05-28T08:21:56.841Z,8.60
2019-05-28T08:24:44.896Z,8.20
2019-05-28T08:27:32.654Z,6.70
2019-05-28T08:30:20.547Z,5.80
2019-05-28T08:33:08.397Z,4.80
2019-05-28T08:35:56.590Z,5.60
2019-05-28T08:38:44.824Z,6.23
2019-05-28T08:41:32.833Z,5.70
2019-05-28T08:44:20.492Z,4.90
2019-05-28T08:47:08.747Z,4.70
2019-05-28T08:49:56.874Z,4.10
2019-05-28T08:52:44.646Z,4.23
2019-05-28T08:55:32.252Z,4.40
2019-05-28T08:58:20.612Z,4.27
2019-05-28T09:01:08.332Z,3.70
2019-05-28T09:03:56.055Z,3.00
2019-05-28T09:06:43.925Z,3.40
2019-05-28T09:09:31.798Z,3.67
2019-05-28T09:12:19.559Z,4.00
2019-05-28T09:15:07.250Z,3.30
2019-05-28T09:17:55.207Z,4.07
2019-05-28T09:20:43.032Z,4.10
2019-05-28T09:23:30.681Z,3.50
2019-05-28T09:26:18.789Z,3.67
2019-05-28T09:29:06.643Z,4.27
2019-05-28T09:31:54.062Z,2.70
2019-05-28T09:34:42.029Z,3.23
2019-05-28T09:37:29.420Z,2.90
2019-05-28T09:40:18.502Z,3.97
2019-05-28T09:43:06.925Z,4.87
2019-05-28T09:45:54.756Z,4.83
2019-05-28T09:48:42.602Z,5.47
2019-05-28T09:51:31.096Z,6.03
2019-05-28T09:54:19.428Z,5.90
2019-05-28T09:57:07.871Z,6.60
2019-05-28T09:59:55.810Z,6.47
2019-05-28T10:02:43.788Z,6.97
2019-05-28T10:05:32.475Z,6.73
2019-05-28T10:08:20.852Z,6.83
2019-05-28T10:11:08.580Z,6.80
2019-05-28T10:13:56.474Z,6.17
2019-05-28T10:16:44.492Z,5.10
2019-05-28T10:19:32.083Z,5.13
2019-05-28T10:22:19.842Z,5.63
2019-05-28T10:25:08.056Z,5.73
2019-05-28T10:28:00.929Z,5.80
2019-05-28T10:30:45.926Z,4.10
2019-05-28T10:33:33.770Z,3.93
2019-05-28T10:36:34.975Z,4.00
2019-05-28T10:39:10.867Z,3.90
2019-05-28T10:41:58.747Z,3.47
2019-05-28T10:44:46.842Z,3.57
2019-05-28T10:47:34.531Z,3.43
2019-05-28T10:50:22.471Z,2.60
2019-05-28T10:53:10.516Z,2.40
2019-05-28T10:55:58.344Z,2.20
2019-05-28T10:58:46.330Z,2.30
2019-05-28T11:01:35.033Z,2.43
2019-05-28T11:04:23.251Z,2.37
2019-05-28T11:07:11.960Z,2.00
2019-05-28T11:09:59.657Z,2.60
2019-05-28T11:12:47.413Z,2.10
2019-05-28T11:15:36.237Z,1.80
2019-05-28T11:18:24.331Z,1.60
2019-05-28T11:21:12.278Z,2.40
2019-05-28T11:23:59.960Z,2.10
2019-05-28T11:26:47.895Z,2.07
2019-05-28T11:29:35.743Z,2.10
2019-05-28T11:32:23.176Z,2.13
2019-05-28T11:35:12.589Z,2.20
2019-05-28T11:38:00.763Z,1.80
2019-05-28T11:40:49.311Z,2.00
2019-05-28T11:43:37.500Z,1.90
2019-05-28T11:46:25.445Z,1.93
2019-05-28T11:49:13.568Z,1.80
2019-05-28T11:52:01.710Z,1.80
2019-05-28T11:54:50.050Z,1.70
2019-05-28T11:57:37.769Z,1.67
2019-05-28T12:00:27.142Z,1.47
2019-05-28T12:03:15.668Z,2.00
2019-05-28T12:06:03.597Z,1.70
2019-05-28T12:08:51.395Z,1.50
2019-05-28T12:11:39.748Z,1.30
2019-05-28T12:14:27.964Z,1.57
2019-05-28T12:17:16.065Z,1.90
2019-05-28T12:20:05.168Z,1.13
2019-05-28T12:23:09.805Z,1.67
2019-05-28T12:25:43.611Z,1.30
2019-05-28T12:28:37.398Z,1.20
2019-05-28T12:31:21.332Z,1.40
2019-05-28T12:34:09.347Z,1.50
2019-05-28T12:36:57.355Z,1.33
2019-05-28T12:39:45.451Z,1.10
2019-05-28T12:42:33.829Z,1.43
2019-05-28T12:45:35.152Z,1.77
2019-05-28T12:48:13.206Z,1.23
2019-05-28T12:51:02.304Z,1.60
2019-05-28T12:53:51.579Z,1.53
2019-05-28T12:56:39.982Z,1.60
2019-05-28T12:59:28.121Z,1.60
2019-05-28T13:02:15.819Z,1.50
2019-05-28T13:05:03.826Z,1.60
2019-05-28T13:08:07.535Z,1.37
2019-05-28T13:10:41.287Z,1.40
2019-05-28T13:13:29.334Z,1.37
2019-05-28T13:16:17.101Z,1.70
2019-05-28T13:19:05.045Z,1.63
2019-05-28T13:21:53.320Z,1.50
2019-05-28T13:24:40.741Z,1.27
2019-05-28T13:27:28.895Z,1.43
2019-05-28T13:30:17.183Z,1.20
2019-05-28T13:33:05.434Z,1.07
2019-05-28T13:35:53.308Z,1.60
2019-05-28T13:38:42.816Z,1.40
2019-05-28T13:41:30.716Z,1.50
2019-05-28T13:44:18.618Z,1.47
2019-05-28T13:47:06.379Z,1.00
2019-05-28T13:49:54.248Z,1.40
2019-05-28T13:52:42.007Z,1.37
2019-05-28T13:55:30.239Z,1.20
2019-05-28T13:58:17.816Z,1.20
2019-05-28T14:01:05.948Z,1.20
2019-05-28T14:03:54.401Z,1.23
2019-05-28T14:06:44.487Z,1.40
2019-05-28T14:09:32.104Z,1.50
2019-05-28T14:12:20.261Z,1.50
2019-05-28T14:15:09.631Z,1.20
2019-05-28T14:17:57.832Z,1.40
2019-05-28T14:20:45.539Z,1.40
2019-05-28T14:23:33.603Z,1.50
2019-05-28T14:26:21.650Z,1.43
2019-05-28T14:29:09.823Z,1.70
2019-05-28T14:31:57.850Z,1.40
2019-05-28T14:34:46.149Z,1.73
2019-05-28T14:37:33.792Z,1.77
2019-05-28T14:40:24.493Z,1.67
2019-05-28T14:43:11.461Z,1.60
2019-05-28T14:45:59.755Z,1.70
2019-05-28T14:48:48.294Z,1.40
2019-05-28T14:51:36.137Z,1.97
2019-05-28T14:54:23.666Z,1.90
2019-05-28T14:57:11.684Z,1.80
2019-05-28T14:59:59.502Z,2.60
2019-05-28T15:02:47.294Z,2.37
2019-05-28T15:05:35.176Z,2.47
2019-05-28T15:08:23.038Z,2.90
2019-05-28T15:11:10.827Z,2.83
2019-05-28T15:13:59.644Z,2.77
2019-05-28T15:16:47.425Z,2.53
2019-05-28T15:19:35.287Z,2.50
2019-05-28T15:22:22.688Z,2.70
2019-05-28T15:25:10.819Z,2.63
2019-05-28T15:27:58.391Z,2.70
2019-05-28T15:30:46.552Z,2.67
2019-05-28T15:33:34.453Z,2.60
2019-05-28T15:36:22.061Z,3.17
2019-05-28T15:39:09.971Z,2.87
2019-05-28T15:41:57.694Z,2.80
2019-05-28T15:44:45.330Z,2.50
2019-05-28T15:47:33.229Z,2.40
2019-05-28T15:50:21.242Z,2.30
2019-05-28T15:53:08.917Z,2.53
2019-05-28T15:55:56.550Z,2.13
2019-05-28T15:58:43.960Z,2.40
2019-05-28T16:01:32.109Z,1.93
2019-05-28T16:04:19.958Z,2.03
2019-05-28T16:07:08.048Z,2.10
2019-05-28T16:09:57.068Z,1.90
2019-05-28T16:12:45.095Z,1.90
2019-05-28T16:15:32.936Z,1.80
2019-05-28T16:18:20.863Z,2.10
2019-05-28T16:21:08.946Z,2.17
2019-05-28T16:23:56.730Z,2.07
2019-05-28T16:26:44.455Z,2.00
2019-05-28T16:29:32.457Z,1.90
2019-05-28T16:32:24.930Z,1.90
2019-05-28T16:35:10.860Z,2.10
2019-05-28T16:37:58.582Z,2.30
2019-05-28T16:40:46.608Z,2.17
2019-05-28T16:43:34.269Z,2.07
2019-05-28T16:46:22.301Z,1.93
2019-05-28T16:49:10.431Z,2.47
2019-05-28T16:51:58.791Z,2.20
2019-05-28T16:54:46.711Z,1.77
2019-05-28T16:57:34.376Z,1.93
2019-05-28T17:00:22.442Z,2.00
2019-05-28T17:03:10.786Z,2.40
2019-05-28T17:05:58.823Z,2.33
2019-05-28T17:08:46.745Z,2.00
2019-05-28T17:11:34.296Z,2.03
2019-05-28T17:14:26.362Z,1.93
2019-05-28T17:17:11.764Z,2.10
2019-05-28T17:19:59.585Z,2.13
2019-05-28T17:22:47.394Z,1.90
2019-05-28T17:25:35.625Z,2.43
2019-05-28T17:28:23.406Z,2.47
2019-05-28T17:31:11.313Z,2.50
2019-05-28T17:33:59.307Z,2.27
2019-05-28T17:36:47.444Z,2.30
2019-05-28T17:39:35.536Z,2.30
2019-05-28T17:42:23.632Z,2.57
2019-05-28T17:45:11.769Z,2.33
2019-05-28T17:47:59.300Z,2.50
2019-05-28T17:50:47.395Z,2.60
2019-05-28T17:53:35.638Z,3.13
2019-05-28T17:56:23.398Z,3.40
2019-05-28T17:59:11.380Z,2.73
2019-05-28T18:01:58.893Z,2.40
2019-05-28T18:04:46.701Z,2.47
2019-05-28T18:07:34.436Z,2.30
2019-05-28T18:10:22.332Z,2.30
2019-05-28T18:13:10.061Z,2.47
2019-05-28T18:15:58.306Z,2.20
2019-05-28T18:18:46.152Z,2.27
2019-05-28T18:21:33.575Z,2.30
2019-05-28T18:24:21.352Z,2.27
2019-05-28T18:27:09.354Z,2.17
2019-05-28T18:29:56.755Z,2.17
2019-05-28T18:32:44.209Z,2.13
2019-05-28T18:35:31.734Z,2.00
2019-05-28T18:38:19.103Z,2.10
2019-05-28T18:41:20.676Z,2.30
2019-05-28T18:43:57.327Z,2.17
2019-05-28T18:46:45.050Z,2.20
2019-05-28T18:49:32.480Z,2.20
2019-05-28T18:52:20.440Z,2.20
2019-05-28T18:55:08.339Z,2.37
2019-05-28T18:57:56.028Z,2.63
2019-05-28T19:00:43.939Z,2.37
2019-05-28T19:03:32.821Z,2.33
2019-05-28T19:06:20.560Z,2.30
2019-05-28T19:09:11.457Z,2.20
2019-05-28T19:12:02.205Z,2.40
2019-05-28T19:14:49.995Z,2.87
2019-05-28T19:17:37.840Z,2.40
2019-05-28T19:20:26.097Z,2.40
2019-05-28T19:23:14.155Z,2.70
2019-05-28T19:26:02.336Z,2.90
2019-05-28T19:28:50.977Z,3.00
2019-05-28T19:31:39.502Z,2.80
2019-05-28T19:34:27.751Z,3.07
2019-05-28T19:37:15.407Z,2.90
2019-05-28T19:40:03.430Z,3.00
2019-05-28T19:42:51.704Z,2.80
2019-05-28T19:45:39.776Z,3.17
2019-05-28T19:48:27.273Z,3.00
2019-05-28T19:51:14.620Z,2.90
2019-05-28T19:54:02.920Z,2.50
2019-05-28T19:56:50.961Z,2.90
2019-05-28T19:59:38.991Z,3.20
2019-05-28T20:02:27.010Z,2.53
2019-05-28T20:05:15.280Z,3.10
2019-05-28T20:08:03.147Z,2.93
2019-05-28T20:10:50.935Z,2.90
2019-05-28T20:13:38.662Z,2.83
2019-05-28T20:16:26.513Z,3.17
2019-05-28T20:19:14.480Z,3.37
2019-05-28T20:22:02.409Z,3.37
2019-05-28T20:24:50.231Z,3.17
2019-05-28T20:27:38.591Z,3.20
2019-05-28T20:30:27.014Z,3.60
2019-05-28T20:33:14.456Z,3.50
2019-05-28T20:36:01.998Z,3.63
2019-05-28T20:38:50.030Z,2.93
2019-05-28T20:41:37.986Z,3.77
2019-05-28T20:44:25.911Z,3.13
2019-05-28T20:47:13.741Z,3.37
2019-05-28T20:50:04.370Z,3.37
2019-05-28T20:52:51.324Z,3.20
2019-05-28T20:55:39.096Z,3.30
2019-05-28T20:58:39.387Z,3.17
2019-05-28T21:01:16.679Z,3.10
2019-05-28T21:04:04.547Z,3.47
2019-05-28T21:06:52.151Z,3.00
2019-05-28T21:09:39.988Z,3.20
2019-05-28T21:12:42.804Z,3.60
2019-05-28T21:15:18.119Z,3.10
2019-05-28T21:18:06.338Z,3.50
2019-05-28T21:20:55.525Z,3.30
2019-05-28T21:23:43.337Z,3.37
2019-05-28T21:26:31.127Z,3.40
2019-05-28T21:29:19.294Z,3.40
2019-05-28T21:32:06.787Z,3.17
2019-05-28T21:34:57.573Z,3.33
2019-05-28T21:37:44.112Z,3.63
2019-05-28T21:40:31.909Z,3.13
2019-05-28T21:43:19.531Z,3.20
2019-05-28T21:46:06.948Z,3.10
2019-05-28T21:48:54.687Z,3.57
2019-05-28T21:51:42.449Z,3.50
2019-05-28T21:54:29.932Z,3.57
2019-05-28T21:57:18.706Z,3.40
2019-05-28T22:00:14.355Z,3.77
2019-05-28T22:03:02.685Z,3.33
2019-05-28T22:05:50.632Z,3.33
2019-05-28T22:08:38.586Z,3.30
2019-05-28T22:11:26.917Z,3.13
2019-05-28T22:14:14.917Z,3.17
2019-05-28T22:17:04.132Z,3.00
2019-05-28T22:19:52.741Z,3.07
2019-05-28T22:22:41.067Z,3.20
2019-05-28T22:25:28.806Z,3.13
2019-05-28T22:28:17.100Z,3.27
2019-05-28T22:31:05.420Z,3.10
2019-05-28T22:33:53.605Z,3.10
2019-05-28T22:36:41.607Z,3.20
2019-05-28T22:39:29.799Z,2.90
2019-05-28T22:42:18.168Z,3.00
2019-05-28T22:45:07.117Z,2.90
2019-05-28T22:47:55.643Z,3.03
2019-05-28T22:50:43.882Z,3.30
2019-05-28T22:53:32.653Z,3.40
2019-05-28T22:56:20.814Z,3.20
2019-05-28T22:59:08.649Z,3.30
2019-05-28T23:01:56.631Z,3.37
2019-05-28T23:04:44.476Z,3.67
2019-05-28T23:07:32.281Z,3.47
2019-05-28T23:10:20.685Z,3.60
2019-05-28T23:13:09.178Z,3.00
2019-05-28T23:15:57.084Z,3.50
2019-05-28T23:18:45.011Z,3.60
2019-05-28T23:21:32.763Z,3.47
2019-05-28T23:24:20.316Z,3.70
2019-05-28T23:27:08.008Z,3.77
2019-05-28T23:29:56.084Z,3.80
2019-05-28T23:32:43.992Z,3.73
2019-05-28T23:35:31.920Z,3.83
2019-05-28T23:38:19.626Z,4.07
2019-05-28T23:41:07.422Z,3.50
2019-05-28T23:44:01.823Z,3.83
2019-05-28T23:46:44.935Z,4.10
2019-05-28T23:49:33.010Z,4.20
2019-05-28T23:52:20.594Z,3.93
2019-05-28T23:55:09.930Z,4.03
2019-05-28T23:57:57.784Z,3.90
